Time;durP1;ratioP1;P1;durP2;ratioP2;P2;SDS_P1;SDS_P2;PMS_P1;PMS_P2;Temp;Humidity;BMP_temperature;BMP_pressure;BME280_temperature;BME280_humidity;BME280_pressure;Samples;Min_cycle;Max_cycle;Signal;HPM_P1;HPM_P2
2022/05/26 00:00:27;;;;;;;2.72;2.10;;;;;;;16.46;62.49;101652.41;5006449;28;20037;-62
2022/05/26 00:02:52;;;;;;;4.45;2.28;;;;;;;16.40;62.80;101648.75;5010562;28;20042;-62
2022/05/26 00:05:18;;;;;;;4.75;2.40;;;;;;;16.48;62.53;101649.34;5011500;28;20485;-62
2022/05/26 00:07:43;;;;;;;4.68;2.20;;;;;;;16.45;62.61;101645.13;5011342;28;20038;-62
2022/05/26 00:10:09;;;;;;;3.92;2.38;;;;;;;16.53;62.18;101650.19;5010432;28;20029;-62
2022/05/26 00:12:35;;;;;;;5.55;2.20;;;;;;;16.52;62.39;101647.69;5011504;28;20060;-62
2022/05/26 00:15:00;;;;;;;3.45;2.53;;;;;;;16.47;62.64;101647.66;5011261;28;20029;-62
2022/05/26 00:17:28;;;;;;;3.58;2.30;;;;;;;16.45;62.60;101645.13;5020530;28;20037;-62
2022/05/26 00:19:58;;;;;;;4.05;2.30;;;;;;;16.39;63.09;101651.84;5011209;28;20053;-62
2022/05/26 00:22:24;;;;;;;4.85;2.40;;;;;;;16.45;62.82;101653.53;5010407;28;20042;-62
2022/05/26 00:24:50;;;;;;;5.30;2.60;;;;;;;16.31;63.36;101656.00;5010553;28;20088;-62
2022/05/26 00:27:15;;;;;;;5.25;2.65;;;;;;;16.33;63.24;101659.34;5009475;28;20116;-62
2022/05/26 00:29:40;;;;;;;12.05;2.63;;;;;;;16.29;63.39;101657.38;5011109;28;20088;-62
2022/05/26 00:32:06;;;;;;;4.82;2.60;;;;;;;16.30;63.59;101659.88;5008065;28;20041;-62
2022/05/26 00:34:32;;;;;;;5.38;2.80;;;;;;;16.30;63.47;101659.88;4999568;28;20116;-62
2022/05/26 00:36:57;;;;;;;5.35;2.70;;;;;;;16.33;63.39;101658.50;5009155;28;20465;-61
2022/05/26 00:39:24;;;;;;;7.50;2.92;;;;;;;16.27;63.72;101665.19;5010647;28;20061;-62
2022/05/26 00:41:56;;;;;;;5.72;2.58;;;;;;;16.28;63.84;101666.91;5010224;28;20091;-62
2022/05/26 00:44:22;;;;;;;6.85;2.90;;;;;;;16.33;63.59;101662.16;5009347;28;20131;-62
2022/05/26 00:46:59;;;;;;;7.65;3.20;;;;;;;16.29;63.85;101662.97;4994334;28;20030;-62
2022/05/26 00:49:35;;;;;;;7.18;2.90;;;;;;;16.32;63.53;101666.06;5023548;28;20034;-62
2022/05/26 00:52:02;;;;;;;5.93;3.20;;;;;;;16.30;63.63;101668.28;5008082;28;20466;-62
2022/05/26 00:54:27;;;;;;;9.65;3.53;;;;;;;16.28;63.88;101666.91;5012739;28;20034;-62
2022/05/26 00:57:08;;;;;;;8.07;3.17;;;;;;;16.23;63.88;101662.13;5014613;28;20034;-63
2022/05/26 00:59:42;;;;;;;7.25;3.10;;;;;;;16.25;63.96;101661.84;5013791;28;20036;-62
2022/05/26 01:02:08;;;;;;;7.00;3.42;;;;;;;16.28;64.00;101666.91;5014343;28;20560;-62
2022/05/26 01:04:46;;;;;;;7.78;3.40;;;;;;;16.20;64.21;101662.66;5011625;28;20113;-62
2022/05/26 01:07:19;;;;;;;8.05;3.45;;;;;;;16.25;63.96;101673.88;5011776;28;20025;-63
2022/05/26 01:09:45;;;;;;;8.77;4.13;;;;;;;16.21;64.27;101664.31;5014415;28;20026;-63
2022/05/26 01:12:11;;;;;;;12.25;4.25;;;;;;;16.25;64.30;101667.44;5016184;28;20485;-62
2022/05/26 01:14:42;;;;;;;10.95;3.60;;;;;;;16.27;64.07;101660.47;5013099;28;20037;-62
2022/05/26 01:17:20;;;;;;;7.90;3.80;;;;;;;16.26;64.23;101669.94;5014416;28;20030;-64
2022/05/26 01:20:01;;;;;;;7.80;4.05;;;;;;;16.35;63.64;101673.09;5013660;28;20038;-62
2022/05/26 01:22:44;;;;;;;9.57;4.15;;;;;;;16.35;63.51;101673.09;5011954;28;20042;-63
2022/05/26 01:25:32;;;;;;;11.55;3.80;;;;;;;16.36;63.66;101675.63;5013286;28;20034;-62
2022/05/26 01:28:23;;;;;;;11.13;4.10;;;;;;;16.27;63.86;101671.66;5009603;28;20497;-62
2022/05/26 01:30:58;;;;;;;9.73;4.05;;;;;;;16.25;64.21;101678.63;4994454;28;20039;-62
2022/05/26 01:33:48;;;;;;;9.43;4.22;;;;;;;16.26;63.98;101680.31;4998056;28;20030;-62
2022/05/26 01:36:28;;;;;;;10.30;4.70;;;;;;;16.24;64.43;101680.59;5013358;28;20084;-62
2022/05/26 01:39:22;;;;;;;11.77;4.82;;;;;;;16.27;64.13;101685.66;5013874;28;20045;-62
2022/05/26 01:42:07;;;;;;;10.82;4.43;;;;;;;16.27;64.04;101676.41;5016384;28;20061;-62
2022/05/26 01:44:48;;;;;;;9.85;4.70;;;;;;;16.32;63.87;101674.47;5033466;28;20044;-62
2022/05/26 01:47:20;;;;;;;13.18;5.15;;;;;;;16.30;64.12;101681.47;4998054;28;20050;-62
2022/05/26 01:49:55;;;;;;;11.95;5.10;;;;;;;16.30;64.26;101687.91;4995427;28;20157;-63
2022/05/26 01:52:31;;;;;;;11.00;5.43;;;;;;;16.26;64.49;101692.38;5012703;28;20037;-63
2022/05/26 01:55:13;;;;;;;12.25;5.90;;;;;;;16.26;64.31;101694.31;5011565;28;20393;-63
2022/05/26 01:58:20;;;;;;;11.65;5.80;;;;;;;16.11;65.06;101686.66;5013589;28;20490;-63
2022/05/26 02:00:46;;;;;;;12.70;6.28;;;;;;;16.11;65.13;101703.47;4971963;28;20380;-63
2022/05/26 02:03:16;;;;;;;13.18;6.93;;;;;;;16.16;64.96;101692.31;5002454;28;20752;-63
2022/05/26 02:05:48;;;;;;;13.13;6.95;;;;;;;16.11;65.20;101707.13;5013477;28;20026;-63
2022/05/26 02:08:26;;;;;;;16.85;7.20;;;;;;;16.15;65.01;101699.00;5012775;28;20107;-63
2022/05/26 02:11:24;;;;;;;15.90;6.47;;;;;;;16.13;65.18;101702.09;5013206;28;20076;-63
2022/05/26 02:13:57;;;;;;;15.80;7.68;;;;;;;16.16;64.87;101707.16;5018767;28;20057;-63
2022/05/26 02:16:35;;;;;;;12.77;7.30;;;;;;;16.16;65.08;101709.97;5032249;28;20025;-63
2022/05/26 02:19:11;;;;;;;12.52;7.70;;;;;;;16.13;65.33;101709.66;5012137;28;20040;-63
2022/05/26 02:22:09;;;;;;;13.30;7.63;;;;;;;16.19;64.63;101714.16;5012839;28;20065;-63
2022/05/26 02:24:50;;;;;;;12.82;6.85;;;;;;;16.17;65.22;101716.41;5009080;28;20375;-63
2022/05/26 02:27:16;;;;;;;16.67;7.70;;;;;;;16.15;65.22;101718.63;5012034;28;20525;-63
2022/05/26 02:29:54;;;;;;;10.80;6.80;;;;;;;16.20;65.19;101729.88;5011839;28;20030;-63
2022/05/26 02:32:36;;;;;;;13.57;7.18;;;;;;;16.20;64.68;101724.28;5011343;28;20397;-63
2022/05/26 02:35:07;;;;;;;13.60;7.23;;;;;;;16.21;65.02;101723.16;5012008;28;20061;-63
2022/05/26 02:37:37;;;;;;;13.95;7.72;;;;;;;16.18;65.12;101729.28;5009954;28;20045;-63
2022/05/26 02:40:04;;;;;;;18.25;8.02;;;;;;;16.12;65.38;101731.22;5012516;28;20056;-62
2022/05/26 02:42:30;;;;;;;17.85;8.02;;;;;;;16.18;65.08;101727.31;5012635;28;20041;-63
2022/05/26 02:44:56;;;;;;;14.32;7.43;;;;;;;16.17;65.26;101734.03;5011561;28;20036;-63
2022/05/26 02:47:40;;;;;;;17.33;7.82;;;;;;;16.20;64.82;101732.69;5012708;28;20042;-63
2022/05/26 02:50:18;;;;;;;13.48;7.47;;;;;;;16.21;65.08;101731.56;5012025;28;20028;-63
2022/05/26 02:53:13;;;;;;;14.55;7.63;;;;;;;16.26;64.55;101739.97;4992066;28;20462;-63
2022/05/26 02:55:58;;;;;;;17.50;7.38;;;;;;;16.17;65.31;101730.41;4994900;28;20065;-63
2022/05/26 02:58:36;;;;;;;18.50;8.15;;;;;;;16.16;65.35;101737.13;5014061;28;20555;-62
2022/05/26 03:01:30;;;;;;;16.60;8.23;;;;;;;16.16;64.96;101737.13;5010915;28;20045;-63
2022/05/26 03:04:08;;;;;;;16.85;7.63;;;;;;;16.15;65.16;101738.22;5002412;28;20044;-63
2022/05/26 03:06:52;;;;;;;14.20;7.43;;;;;;;16.09;65.74;101742.13;5010537;28;20022;-63
2022/05/26 03:09:19;;;;;;;17.48;8.00;;;;;;;16.12;65.51;101735.97;4992565;28;20034;-63
2022/05/26 03:11:51;;;;;;;16.02;8.32;;;;;;;16.12;65.19;101738.78;4997311;28;20036;-62
2022/05/26 03:14:17;;;;;;;15.93;7.97;;;;;;;16.11;65.44;101739.88;5011852;28;20065;-63
2022/05/26 03:16:43;;;;;;;18.00;8.15;;;;;;;16.07;65.46;101739.59;5011249;28;20022;-63
2022/05/26 03:19:09;;;;;;;18.88;7.93;;;;;;;16.04;65.63;101742.94;5011481;28;20041;-63
2022/05/26 03:21:36;;;;;;;18.55;8.63;;;;;;;16.05;65.62;101747.41;5010968;28;20037;-62
2022/05/26 03:24:01;;;;;;;20.10;8.98;;;;;;;16.03;65.79;101744.00;5007538;28;20116;-63
2022/05/26 03:26:27;;;;;;;20.00;8.38;;;;;;;16.06;65.63;101746.28;4991895;28;20180;-63
2022/05/26 03:28:52;;;;;;;17.35;8.82;;;;;;;16.03;65.78;101743.16;4992544;28;20478;-63
2022/05/26 03:31:17;;;;;;;18.83;8.65;;;;;;;16.00;65.36;101752.97;5008830;28;20465;-63
2022/05/26 03:41:56;;;;;;;20.05;8.07;;;;;;;15.99;65.97;101761.63;5004520;28;20061;-62
2022/05/26 03:44:21;;;;;;;17.45;7.90;;;;;;;15.95;66.15;101762.19;5004720;28;20029;-63
2022/05/26 03:46:49;;;;;;;23.58;8.63;;;;;;;15.96;65.94;101763.03;5011006;28;20044;-63
2022/05/26 03:49:17;;;;;;;20.40;8.32;;;;;;;15.97;66.11;101767.50;5013464;28;20044;-63
2022/05/26 03:51:42;;;;;;;21.13;7.78;;;;;;;15.92;66.22;101770.25;5010033;28;20036;-63
2022/05/26 03:54:08;;;;;;;19.10;7.40;;;;;;;15.97;65.93;101773.09;5010048;28;20038;-63
2022/05/26 03:56:33;;;;;;;19.85;7.40;;;;;;;15.94;66.18;101773.63;5011839;28;20080;-63
2022/05/26 03:58:58;;;;;;;22.13;8.27;;;;;;;15.92;65.69;101771.09;5008693;28;20098;-63
2022/05/26 04:01:24;;;;;;;21.45;7.63;;;;;;;15.90;66.43;101778.06;5010986;28;20040;-63
2022/05/26 04:03:49;;;;;;;21.45;7.95;;;;;;;15.90;65.98;101778.06;5012107;28;20026;-63
2022/05/26 04:06:16;;;;;;;18.42;7.03;;;;;;;15.92;65.72;101782.31;5011938;28;20060;-63
2022/05/26 04:08:41;;;;;;;21.42;7.65;;;;;;;15.91;65.90;101788.16;5009067;28;20064;-63
2022/05/26 04:11:06;;;;;;;25.63;8.20;;;;;;;15.90;65.95;101784.50;5010865;28;20065;-63
2022/05/26 04:13:32;;;;;;;22.52;7.75;;;;;;;15.87;65.86;101790.63;5009142;28;20746;-63
2022/05/26 04:15:58;;;;;;;21.02;7.47;;;;;;;15.83;66.08;101788.63;5010897;28;20041;-63
2022/05/26 04:18:23;;;;;;;21.08;7.57;;;;;;;15.85;66.23;101797.63;5009837;28;20034;-63
2022/05/26 04:20:54;;;;;;;20.77;7.00;;;;;;;15.82;66.25;101799.00;5011744;28;20072;-63
2022/05/26 04:23:19;;;;;;;18.00;7.13;;;;;;;15.82;66.20;101798.16;5010566;28;20030;-63
2022/05/26 04:25:50;;;;;;;21.30;7.45;;;;;;;15.75;66.60;101801.16;5011697;28;20019;-62
2022/05/26 04:28:18;;;;;;;19.30;7.10;;;;;;;15.79;66.70;101805.13;5012107;28;20034;-62
2022/05/26 04:30:45;;;;;;;21.40;6.68;;;;;;;15.77;66.43;101807.34;5011928;28;20456;-62
2022/05/26 04:33:13;;;;;;;19.52;6.43;;;;;;;15.82;66.38;101806.56;5016826;28;20030;-63
2022/05/26 04:35:38;;;;;;;23.52;6.88;;;;;;;15.85;66.40;101815.28;5035066;28;20670;-62
2022/05/26 04:38:03;;;;;;;21.73;6.68;;;;;;;15.85;66.31;101811.63;5034491;28;20128;-63
2022/05/26 04:40:29;;;;;;;24.10;7.43;;;;;;;15.83;66.33;101809.06;5034986;28;20440;-63
2022/05/26 04:42:54;;;;;;;23.33;6.63;;;;;;;15.85;66.15;101809.66;5034463;28;20393;-62
2022/05/26 04:45:22;;;;;;;19.17;6.63;;;;;;;15.83;66.30;101814.69;5026548;28;20025;-63
2022/05/26 04:47:48;;;;;;;21.02;6.75;;;;;;;15.84;66.15;101816.38;5007426;28;20030;-62
2022/05/26 04:50:14;;;;;;;24.05;6.78;;;;;;;15.84;66.18;101810.78;5031942;28;20072;-62
2022/05/26 04:52:39;;;;;;;17.25;6.53;;;;;;;15.86;66.29;101813.31;5014936;28;20045;-62
2022/05/26 04:55:05;;;;;;;22.27;6.32;;;;;;;15.76;66.53;101828.06;5014702;28;20018;-62
2022/05/26 04:57:31;;;;;;;25.08;7.60;;;;;;;15.77;66.52;101818.56;5012202;28;20032;-62
2022/05/26 04:59:56;;;;;;;20.42;6.30;;;;;;;15.82;66.13;101831.75;5014107;28;20034;-62
2022/05/26 05:02:22;;;;;;;22.98;7.00;;;;;;;15.82;66.27;101835.38;5012911;28;20137;-62
2022/05/26 05:04:48;;;;;;;20.52;6.65;;;;;;;15.83;66.26;101830.63;5013242;28;20435;-62
2022/05/26 05:07:15;;;;;;;24.92;6.68;;;;;;;15.86;66.37;101844.94;5010199;28;20481;-62
2022/05/26 05:09:41;;;;;;;18.45;6.60;;;;;;;15.88;66.34;101847.50;5011481;28;20061;-62
2022/05/26 05:12:10;;;;;;;17.92;6.78;;;;;;;15.85;66.50;101848.88;5030614;28;20499;-62
2022/05/26 05:14:40;;;;;;;17.50;6.20;;;;;;;15.88;66.57;101855.91;5020124;28;20029;-62
2022/05/26 05:17:05;;;;;;;21.55;6.97;;;;;;;15.86;66.45;101858.09;5012696;28;20026;-63
2022/05/26 05:19:31;;;;;;;23.67;6.80;;;;;;;15.94;66.27;101852.88;5004894;28;20034;-62
2022/05/26 05:22:01;;;;;;;24.15;6.43;;;;;;;16.00;65.95;101856.59;5010801;28;20050;-62
2022/05/26 05:25:19;;;;;;;19.73;6.50;;;;;;;16.05;65.85;101858.59;5015169;28;20033;-62
2022/05/26 05:27:53;;;;;;;25.80;6.78;;;;;;;15.99;66.11;101865.22;4968567;28;20465;-62
2022/05/26 05:30:23;;;;;;;22.95;6.82;;;;;;;16.01;66.29;101874.22;4997906;28;20497;-62
2022/05/26 05:32:53;;;;;;;19.40;6.90;;;;;;;16.04;65.98;101870.91;5013441;28;20477;-63
2022/05/26 05:35:26;;;;;;;20.90;6.30;;;;;;;16.04;66.09;101873.69;5011922;28;20056;-62
2022/05/26 05:37:51;;;;;;;;;;;;;;;16.20;65.05;101883.94;5009535;28;20409;-62
2022/05/26 05:40:16;;;;;;;23.77;7.10;;;;;;;16.01;66.08;101879.81;5011097;28;19921;-62
2022/05/26 05:42:42;;;;;;;26.77;6.82;;;;;;;16.01;66.15;101886.25;5024009;28;20108;-61
2022/05/26 05:45:09;;;;;;;26.77;7.22;;;;;;;16.00;66.16;101878.97;5013638;28;20034;-62
2022/05/26 05:47:34;;;;;;;19.40;6.57;;;;;;;16.02;66.42;101882.34;5012198;28;20084;-62
2022/05/26 05:49:59;;;;;;;19.80;7.60;;;;;;;16.08;66.24;101881.31;5011889;28;20030;-62
2022/05/26 05:52:25;;;;;;;19.40;7.07;;;;;;;16.06;66.52;101886.31;5013790;28;20481;-63
2022/05/26 05:54:50;;;;;;;21.52;6.65;;;;;;;16.09;66.20;101893.34;5012846;28;20026;-63
2022/05/26 05:57:16;;;;;;;21.75;6.78;;;;;;;16.07;66.53;101893.63;5011184;28;20066;-62
2022/05/26 05:59:44;;;;;;;18.55;6.80;;;;;;;16.12;66.14;101890.03;5011149;28;20030;-62
2022/05/26 06:02:09;;;;;;;19.52;6.88;;;;;;;16.12;66.43;101890.88;5010539;28;20038;-64
2022/05/26 06:04:41;;;;;;;21.25;6.82;;;;;;;16.13;66.28;101897.31;5010764;28;20056;-64
2022/05/26 06:07:15;;;;;;;20.33;7.43;;;;;;;16.19;66.01;101907.44;5007511;28;20481;-63
2022/05/26 06:09:41;;;;;;;19.85;7.45;;;;;;;16.18;66.57;101905.75;5012556;28;20037;-62
2022/05/26 06:12:10;;;;;;;22.13;7.72;;;;;;;16.22;65.94;101914.47;5010824;28;20050;-63
2022/05/26 06:14:36;;;;;;;23.13;7.78;;;;;;;16.19;66.37;101916.72;5011440;28;20038;-63
2022/05/26 06:17:02;;;;;;;21.35;7.15;;;;;;;16.23;66.12;101908.63;5011409;28;20092;-64
2022/05/26 06:19:28;;;;;;;19.23;6.90;;;;;;;16.25;66.56;101914.78;5009265;28;20493;-62
2022/05/26 06:21:56;;;;;;;21.45;8.13;;;;;;;16.23;66.33;101911.44;5003746;28;20085;-62
2022/05/26 06:24:25;;;;;;;28.77;8.43;;;;;;;16.23;66.12;101914.22;5011360;28;20057;-62
2022/05/26 06:26:50;;;;;;;20.70;7.55;;;;;;;16.26;66.00;101922.06;5009081;28;20706;-62
2022/05/26 06:37:53;;;;;;;23.02;8.90;;;;;;;16.34;66.13;101929.16;4992472;28;20478;-61
2022/05/26 06:40:22;;;;;;;21.40;9.60;;;;;;;16.43;65.75;101933.19;4992358;28;20058;-60
2022/05/26 06:42:48;;;;;;;21.50;10.45;;;;;;;16.41;65.59;101930.63;5004920;28;20189;-61
2022/05/26 06:45:15;;;;;;;20.90;9.85;;;;;;;16.46;65.50;101938.22;5009963;28;20719;-62
2022/05/26 06:47:41;;;;;;;27.65;9.70;;;;;;;16.49;65.51;101934.06;5003357;28;20068;-62
2022/05/26 06:50:09;;;;;;;21.35;9.90;;;;;;;16.55;65.46;101941.41;5005815;28;20029;-62
2022/05/26 06:52:34;;;;;;;24.90;10.07;;;;;;;16.55;64.92;101944.22;5008499;28;20044;-62
2022/05/26 06:55:02;;;;;;;19.23;9.43;;;;;;;16.58;64.02;101947.31;5006600;28;20026;-62
2022/05/26 06:57:28;;;;;;;20.90;10.57;;;;;;;16.53;64.00;101952.03;5001079;28;20038;-62
2022/05/26 06:59:56;;;;;;;21.17;9.50;;;;;;;16.55;64.24;101945.06;5008334;28;20026;-62
2022/05/26 07:02:22;;;;;;;20.05;9.40;;;;;;;16.63;63.89;101949.34;5006552;28;20765;-62
2022/05/26 07:04:47;;;;;;;18.20;9.80;;;;;;;16.68;64.16;101953.00;5005108;28;20044;-62
2022/05/26 07:07:14;;;;;;;18.55;9.30;;;;;;;16.69;64.02;101954.69;5009107;28;20389;-62
2022/05/26 07:09:40;;;;;;;24.30;9.98;;;;;;;16.74;64.15;101955.88;5009373;28;20088;-63
2022/05/26 07:12:09;;;;;;;19.80;9.02;;;;;;;16.81;64.19;101962.97;5004068;28;20025;-61
2022/05/26 07:14:35;;;;;;;24.05;9.95;;;;;;;16.78;63.54;101963.50;5008203;28;20030;-61
2022/05/26 07:17:03;;;;;;;14.98;8.20;;;;;;;16.86;63.31;101962.19;5003717;28;20100;-62
2022/05/26 07:19:33;;;;;;;15.90;9.02;;;;;;;16.90;63.06;101972.59;5005409;28;20355;-62
2022/05/26 07:21:58;;;;;;;15.55;7.95;;;;;;;16.83;62.63;101968.31;5002679;28;20141;-61
2022/05/26 07:24:29;;;;;;;18.83;7.78;;;;;;;16.86;62.44;101971.44;5008611;28;20542;-61
2022/05/26 07:26:55;;;;;;;18.85;7.65;;;;;;;16.87;62.41;101975.91;5004323;28;20030;-62
2022/05/26 07:29:20;;;;;;;20.90;8.60;;;;;;;16.84;63.01;101982.06;5002299;28;20504;-61
2022/05/26 07:31:46;;;;;;;17.65;8.27;;;;;;;16.93;62.93;101985.19;5007840;28;20025;-61
2022/05/26 07:34:11;;;;;;;18.45;8.57;;;;;;;16.96;62.61;101981.03;5005418;28;20112;-61
2022/05/26 07:42:09;;;;;;;20.88;8.40;;;;;;;17.02;61.58;101996.78;5003706;28;20461;-62
2022/05/26 07:44:37;;;;;;;16.80;8.20;;;;;;;17.12;61.73;101997.69;5007188;28;20125;-62
2022/05/26 07:47:07;;;;;;;17.25;7.85;;;;;;;17.20;61.01;101999.16;4999328;28;20026;-62
2022/05/26 07:49:45;;;;;;;19.20;9.05;;;;;;;17.21;60.89;101995.22;5014886;28;20496;-61
2022/05/26 07:52:15;;;;;;;17.70;8.32;;;;;;;17.18;60.83;101984.56;5008308;28;20041;-61
2022/05/26 07:54:40;;;;;;;18.73;8.70;;;;;;;17.16;60.78;102004.47;5006156;28;20026;-61
2022/05/26 07:57:06;;;;;;;12.80;7.95;;;;;;;17.12;60.59;102002.47;5001327;28;20022;-60
2022/05/26 07:59:32;;;;;;;14.45;8.50;;;;;;;17.13;60.61;102004.16;5009017;28;20083;-62
2022/05/26 08:01:58;;;;;;;12.85;7.13;;;;;;;17.21;60.55;102000.84;5009978;28;20069;-62
2022/05/26 08:04:23;;;;;;;13.25;7.07;;;;;;;17.33;60.74;102009.06;5009423;28;20057;-62
2022/05/26 08:06:49;;;;;;;18.40;7.65;;;;;;;17.36;60.53;102000.09;5010232;28;20076;-61
2022/05/26 08:09:17;;;;;;;22.60;8.50;;;;;;;17.43;60.08;102004.34;5009117;28;20061;-60
2022/05/26 08:11:43;;;;;;;18.95;7.70;;;;;;;17.52;59.74;102006.66;5010275;28;20117;-61
2022/05/26 08:14:09;;;;;;;13.75;7.80;;;;;;;17.66;60.32;102002.25;5009959;28;20109;-61
2022/05/26 08:16:35;;;;;;;14.88;7.82;;;;;;;17.74;60.08;101998.06;4998745;28;20748;-61
2022/05/26 08:19:04;;;;;;;12.18;7.47;;;;;;;17.82;59.20;102001.22;5003085;28;20124;-60
2022/05/26 08:21:33;;;;;;;9.88;6.15;;;;;;;17.96;58.17;102000.72;5009141;28;20037;-61
2022/05/26 08:24:00;;;;;;;13.32;6.43;;;;;;;18.10;58.34;102008.34;4997200;28;20474;-61
2022/05/26 08:26:26;;;;;;;15.52;7.38;;;;;;;18.22;57.65;102008.13;5007203;28;20113;-61
2022/05/26 08:28:52;;;;;;;13.15;8.05;;;;;;;18.26;57.38;102009.25;5008014;28;20107;-61
2022/05/26 08:31:17;;;;;;;14.57;5.60;;;;;;;18.44;56.88;102004.25;5009938;28;20473;-61
2022/05/26 08:33:42;;;;;;;12.38;5.75;;;;;;;18.47;56.51;102012.97;5005328;28;20369;-60
2022/05/26 08:36:12;;;;;;;10.80;5.70;;;;;;;18.43;56.25;102017.47;5007523;28;20378;-62
2022/05/26 08:38:38;;;;;;;13.18;6.03;;;;;;;18.45;56.54;102023.63;5007039;28;20049;-61
2022/05/26 08:41:04;;;;;;;15.13;6.10;;;;;;;18.45;55.87;102022.81;5008598;28;20379;-61
2022/05/26 08:43:36;;;;;;;15.05;5.90;;;;;;;18.47;56.12;102020.53;4996365;28;20068;-61
2022/05/26 08:46:06;;;;;;;12.55;5.28;;;;;;;18.63;55.84;102025.09;5007231;28;20373;-60
2022/05/26 08:48:38;;;;;;;9.75;6.22;;;;;;;18.67;55.58;102025.34;4996836;28;20157;-61
2022/05/26 08:51:05;;;;;;;14.48;7.00;;;;;;;18.72;54.81;102020.63;5003327;28;20030;-62
2022/05/26 08:53:36;;;;;;;13.18;8.15;;;;;;;18.85;55.75;102025.69;4996933;28;20077;-62
2022/05/26 08:56:14;;;;;;;13.50;10.20;;;;;;;18.93;55.59;102029.06;5006333;28;20107;-61
2022/05/26 08:58:46;;;;;;;19.67;15.23;;;;;;;18.76;55.85;102032.16;4999353;28;20031;-61
2022/05/26 09:01:16;;;;;;;16.05;14.00;;;;;;;18.72;55.95;102031.88;5002881;28;20064;-62
2022/05/26 09:03:41;;;;;;;17.42;12.88;;;;;;;18.67;56.06;102036.59;5008569;28;20042;-61
2022/05/26 09:06:11;;;;;;;13.73;9.32;;;;;;;18.75;55.62;102036.94;5003594;28;20049;-61
2022/05/26 09:12:55;;;;;;;14.43;8.88;;;;;;;18.91;54.74;102032.19;4996830;28;20065;-61
2022/05/26 09:14:31;;;;;;;16.75;9.20;;;;;;;18.96;55.37;102042.59;5008819;28;20125;-61
2022/05/26 09:17:03;;;;;;;12.35;8.93;;;;;;;18.96;53.70;102032.16;5008716;28;20032;-62
2022/05/26 09:19:48;;;;;;;;;;;;;;;19.08;55.38;102031.88;5003286;28;20040;-62
2022/05/26 09:22:24;;;;;;;12.45;9.10;;;;;;;19.02;54.40;102044.25;5011083;28;20407;-61
2022/05/26 09:24:49;;;;;;;13.55;9.77;;;;;;;18.99;53.72;102042.03;5011232;28;20421;-61
2022/05/26 09:27:36;;;;;;;10.13;9.13;;;;;;;18.95;53.84;102046.53;5001890;28;20026;-61
2022/05/26 09:30:17;;;;;;;12.93;9.68;;;;;;;18.87;53.91;102045.97;5010934;28;20033;-62
2022/05/26 09:32:45;;;;;;;13.32;9.48;;;;;;;18.90;53.62;102050.16;5011627;28;20033;-61
2022/05/26 09:35:15;;;;;;;14.73;12.13;;;;;;;18.89;54.25;102066.19;5011694;28;20042;-62
2022/05/26 09:37:44;;;;;;;15.52;12.80;;;;;;;18.84;54.17;102071.00;5009542;28;20164;-61
2022/05/26 09:40:17;;;;;;;18.95;12.90;;;;;;;18.87;54.17;102062.00;5005328;28;20478;-61
2022/05/26 09:42:50;;;;;;;20.42;14.30;;;;;;;18.85;54.35;102081.94;5013192;28;20057;-61
2022/05/26 09:45:18;;;;;;;18.55;12.88;;;;;;;18.87;54.00;102074.09;5011231;28;20350;-60
2022/05/26 09:47:44;;;;;;;17.73;11.50;;;;;;;18.87;53.43;102068.47;5010077;28;20519;-61
2022/05/26 09:50:16;;;;;;;17.50;10.73;;;;;;;19.05;53.72;102080.28;5001507;28;20065;-61
2022/05/26 09:52:44;;;;;;;12.43;9.95;;;;;;;19.25;53.26;102071.00;5010731;28;20704;-61
2022/05/26 09:55:27;;;;;;;13.20;9.55;;;;;;;19.28;53.33;102073.25;5003098;28;20026;-61
2022/05/26 09:58:27;;;;;;;13.35;9.30;;;;;;;19.26;53.65;102070.72;5012061;28;20125;-61
2022/05/26 10:00:55;;;;;;;11.23;8.93;;;;;;;19.22;53.31;102069.63;4998995;28;20092;-62
2022/05/26 10:03:36;;;;;;;13.57;12.10;;;;;;;19.33;53.78;102076.06;5005591;28;20029;-61
2022/05/26 10:06:15;;;;;;;15.00;11.23;;;;;;;19.38;52.81;102079.72;5013701;28;20029;-63
2022/05/26 10:09:13;;;;;;;14.95;10.65;;;;;;;19.45;52.36;102072.94;5009234;28;20090;-62
2022/05/26 10:11:56;;;;;;;11.02;7.40;;;;;;;19.44;51.31;102082.53;5010452;28;20026;-63
2022/05/26 10:14:33;;;;;;;10.38;8.65;;;;;;;19.39;51.13;102077.75;5006476;28;20030;-63
2022/05/26 10:17:10;;;;;;;12.05;9.70;;;;;;;19.43;52.18;102087.31;5004292;28;20084;-63
2022/05/26 10:20:08;;;;;;;11.35;9.50;;;;;;;19.56;51.54;102086.72;5006867;28;20080;-62
2022/05/26 10:22:44;;;;;;;14.25;8.70;;;;;;;19.51;50.13;102088.72;4945534;28;20050;-62
2022/05/26 10:25:29;;;;;;;14.27;9.55;;;;;;;19.50;51.35;102095.50;4997390;28;20049;-62
2022/05/26 10:28:04;;;;;;;13.15;10.00;;;;;;;19.54;50.96;102089.00;5007835;28;20029;-61
2022/05/26 10:30:46;;;;;;;16.05;11.52;;;;;;;19.48;50.62;102080.84;5006318;28;20037;-62
2022/05/26 10:33:41;;;;;;;17.35;11.30;;;;;;;19.48;51.63;102083.66;5007004;28;20080;-62
2022/05/26 10:36:36;;;;;;;10.77;9.63;;;;;;;19.64;51.58;102088.16;5006865;28;20034;-63
2022/05/26 10:39:25;;;;;;;12.05;10.75;;;;;;;19.76;50.58;102085.88;5006169;28;20049;-65
2022/05/26 10:42:11;;;;;;;12.80;10.80;;;;;;;19.84;50.59;102084.47;5006583;28;20037;-63
2022/05/26 10:44:46;;;;;;;10.30;9.20;;;;;;;19.96;50.26;102070.06;5007670;28;20032;-63
2022/05/26 10:47:37;;;;;;;12.38;9.23;;;;;;;20.07;50.67;102066.06;5006206;28;20393;-64
2022/05/26 10:50:26;;;;;;;13.57;9.23;;;;;;;20.20;51.03;102073.06;5006296;28;20029;-65
2022/05/26 10:53:06;;;;;;;12.35;9.02;;;;;;;20.21;49.90;102075.59;5006852;28;20488;-64
2022/05/26 10:55:47;;;;;;;10.30;8.82;;;;;;;20.28;48.86;102076.16;5004804;28;20072;-64
2022/05/26 10:58:28;;;;;;;10.57;8.50;;;;;;;20.37;48.70;102062.28;5006395;28;20084;-63
2022/05/26 11:00:59;;;;;;;12.05;8.48;;;;;;;20.39;48.60;102076.06;5006256;28;20030;-65
2022/05/26 11:03:28;;;;;;;11.00;8.85;;;;;;;20.37;48.94;102075.53;5008584;28;20038;-64
2022/05/26 11:06:09;;;;;;;12.38;7.80;;;;;;;20.30;49.50;102079.50;5002776;28;20033;-63
2022/05/26 11:08:46;;;;;;;8.05;7.20;;;;;;;20.41;50.17;102079.47;5004780;28;20034;-61
2022/05/26 11:11:30;;;;;;;11.45;7.57;;;;;;;20.48;50.17;102082.81;4990197;28;20469;-61
2022/05/26 11:17:21;;;;;;;10.18;6.78;;;;;;;20.53;49.74;102080.00;5006802;28;20091;-61
2022/05/26 11:19:55;;;;;;;22.27;7.50;;;;;;;20.34;48.68;102074.13;5006586;28;20137;-61
2022/05/26 11:22:20;;;;;;;14.45;7.70;;;;;;;20.26;48.57;102074.72;5000543;28;20052;-61
2022/05/26 11:24:50;;;;;;;9.82;8.40;;;;;;;20.18;48.36;102092.25;5000733;28;20030;-61
2022/05/26 11:27:37;;;;;;;10.27;8.15;;;;;;;20.15;49.10;102082.38;4991988;28;20825;-62
2022/05/26 11:30:05;;;;;;;10.35;8.77;;;;;;;20.05;48.46;102083.28;4999393;28;20033;-62
2022/05/26 11:38:48;;;;;;;12.95;8.73;;;;;;;19.91;49.09;102086.97;5002618;28;20563;-62
2022/05/26 11:41:25;;;;;;;9.77;8.25;;;;;;;19.80;49.02;102075.72;5004379;28;20120;-63
2022/05/26 11:44:07;;;;;;;11.52;8.38;;;;;;;19.73;49.18;102077.16;4998558;28;20038;-61
2022/05/26 11:46:44;;;;;;;9.02;7.35;;;;;;;19.65;49.72;102086.19;4999453;28;20037;-61
2022/05/26 11:49:11;;;;;;;14.25;9.05;;;;;;;19.57;49.09;102081.94;4999190;28;20562;-62
2022/05/26 11:51:41;;;;;;;12.88;9.80;;;;;;;19.54;49.04;102066.47;5002435;28;20385;-62
2022/05/26 11:54:09;;;;;;;13.45;9.20;;;;;;;19.56;49.61;102066.19;5003418;28;20030;-62
2022/05/26 11:56:41;;;;;;;11.77;9.23;;;;;;;19.68;49.61;102065.91;5007400;28;20651;-61
2022/05/26 11:59:32;;;;;;;15.75;11.30;;;;;;;19.77;49.38;102065.06;4995553;28;20040;-62
2022/05/26 12:02:00;;;;;;;13.77;9.90;;;;;;;19.85;48.97;102053.19;4997932;28;20103;-62
2022/05/26 12:04:33;;;;;;;14.07;9.27;;;;;;;19.88;49.17;102048.09;5001928;28;20107;-62
2022/05/26 12:07:01;;;;;;;13.63;9.20;;;;;;;19.89;49.22;102047.00;5001020;28;20112;-62
2022/05/26 12:09:48;;;;;;;11.55;9.60;;;;;;;20.00;50.12;102043.84;5006163;28;20044;-62
2022/05/26 12:12:16;;;;;;;10.68;6.97;;;;;;;20.12;49.29;102046.31;4994261;28;20022;-59
2022/05/26 12:14:47;;;;;;;15.70;7.82;;;;;;;20.11;48.86;102042.66;5002563;28;20033;-62